sensor_id;sensor_type;location;lat;lon;timestamp;pressure;altitude;pressure_sealevel;temperature
10058;BMP180;5068;51.286;7.518;2023-04-03T00:00:10;100583.00;;;4.00
10058;BMP180;5068;51.286;7.518;2023-04-03T00:01:43;100581.00;;;4.00
10058;BMP180;5068;51.286;7.518;2023-04-03T00:03:22;100577.00;;;4.00
10058;BMP180;5068;51.286;7.518;2023-04-03T00:04:54;100576.00;;;4.00
10058;BMP180;5068;51.286;7.518;2023-04-03T00:06:27;100582.00;;;4.00
10058;BMP180;5068;51.286;7.518;2023-04-03T00:08:01;100578.00;;;4.00
10058;BMP180;5068;51.286;7.518;2023-04-03T00:09:34;100578.00;;;4.00
10058;BMP180;5068;51.286;7.518;2023-04-03T00:11:08;100575.00;;;4.00
10058;BMP180;5068;51.286;7.518;2023-04-03T00:12:41;100579.00;;;4.00
10058;BMP180;5068;51.286;7.518;2023-04-03T00:14:14;100574.00;;;4.00
10058;BMP180;5068;51.286;7.518;2023-04-03T00:15:49;100571.00;;;3.90
10058;BMP180;5068;51.286;7.518;2023-04-03T00:17:22;100568.00;;;3.90
10058;BMP180;5068;51.286;7.518;2023-04-03T00:18:55;100575.00;;;3.90
10058;BMP180;5068;51.286;7.518;2023-04-03T00:20:29;100580.00;;;3.90
10058;BMP180;5068;51.286;7.518;2023-04-03T00:22:01;100575.00;;;3.90
10058;BMP180;5068;51.286;7.518;2023-04-03T00:23:35;100574.00;;;3.90
10058;BMP180;5068;51.286;7.518;2023-04-03T00:25:09;100580.00;;;3.90
10058;BMP180;5068;51.286;7.518;2023-04-03T00:26:42;100580.00;;;3.80
10058;BMP180;5068;51.286;7.518;2023-04-03T00:28:16;100587.00;;;3.80
10058;BMP180;5068;51.286;7.518;2023-04-03T00:29:49;100586.00;;;3.80
10058;BMP180;5068;51.286;7.518;2023-04-03T00:31:23;100587.00;;;3.80
10058;BMP180;5068;51.286;7.518;2023-04-03T00:32:57;100576.00;;;3.80
10058;BMP180;5068;51.286;7.518;2023-04-03T00:34:31;100586.00;;;3.80
10058;BMP180;5068;51.286;7.518;2023-04-03T00:36:09;100581.00;;;3.80
10058;BMP180;5068;51.286;7.518;2023-04-03T00:37:43;100590.00;;;3.80
10058;BMP180;5068;51.286;7.518;2023-04-03T00:39:17;100589.00;;;3.80
10058;BMP180;5068;51.286;7.518;2023-04-03T00:40:50;100580.00;;;3.80
10058;BMP180;5068;51.286;7.518;2023-04-03T00:42:24;100586.00;;;3.80
10058;BMP180;5068;51.286;7.518;2023-04-03T00:43:57;100588.00;;;3.70
10058;BMP180;5068;51.286;7.518;2023-04-03T00:45:34;100575.00;;;3.70
10058;BMP180;5068;51.286;7.518;2023-04-03T00:47:13;100583.00;;;3.70
10058;BMP180;5068;51.286;7.518;2023-04-03T00:48:48;100582.00;;;3.70
10058;BMP180;5068;51.286;7.518;2023-04-03T00:50:22;100592.00;;;3.70
10058;BMP180;5068;51.286;7.518;2023-04-03T00:51:57;100594.00;;;3.70
10058;BMP180;5068;51.286;7.518;2023-04-03T00:53:36;100581.00;;;3.60
10058;BMP180;5068;51.286;7.518;2023-04-03T00:55:10;100586.00;;;3.60
10058;BMP180;5068;51.286;7.518;2023-04-03T00:56:44;100591.00;;;3.60
10058;BMP180;5068;51.286;7.518;2023-04-03T00:58:20;100582.00;;;3.60
10058;BMP180;5068;51.286;7.518;2023-04-03T01:00:03;100595.00;;;3.60
10058;BMP180;5068;51.286;7.518;2023-04-03T01:01:38;100592.00;;;3.50
10058;BMP180;5068;51.286;7.518;2023-04-03T01:03:13;100598.00;;;3.50
10058;BMP180;5068;51.286;7.518;2023-04-03T01:04:46;100591.00;;;3.50
10058;BMP180;5068;51.286;7.518;2023-04-03T01:06:26;100594.00;;;3.60
10058;BMP180;5068;51.286;7.518;2023-04-03T01:08:04;100583.00;;;3.50
10058;BMP180;5068;51.286;7.518;2023-04-03T01:09:40;100591.00;;;3.60
10058;BMP180;5068;51.286;7.518;2023-04-03T01:11:12;100590.00;;;3.60
10058;BMP180;5068;51.286;7.518;2023-04-03T01:12:49;100590.00;;;3.60
10058;BMP180;5068;51.286;7.518;2023-04-03T01:14:22;100593.00;;;3.60
10058;BMP180;5068;51.286;7.518;2023-04-03T01:15:56;100586.00;;;3.60
10058;BMP180;5068;51.286;7.518;2023-04-03T01:17:34;100594.00;;;3.60
10058;BMP180;5068;51.286;7.518;2023-04-03T01:19:15;100586.00;;;3.70
10058;BMP180;5068;51.286;7.518;2023-04-03T01:21:38;100587.00;;;3.70
10058;BMP180;5068;51.286;7.518;2023-04-03T01:23:32;100581.00;;;3.60
10058;BMP180;5068;51.286;7.518;2023-04-03T01:25:09;100587.00;;;3.60
10058;BMP180;5068;51.286;7.518;2023-04-03T01:26:43;100589.00;;;3.60
10058;BMP180;5068;51.286;7.518;2023-04-03T01:28:20;100588.00;;;3.60
10058;BMP180;5068;51.286;7.518;2023-04-03T01:29:57;100586.00;;;3.60
10058;BMP180;5068;51.286;7.518;2023-04-03T01:31:45;100579.00;;;3.60
10058;BMP180;5068;51.286;7.518;2023-04-03T01:33:19;100587.00;;;3.50
10058;BMP180;5068;51.286;7.518;2023-04-03T01:34:52;100594.00;;;3.50
10058;BMP180;5068;51.286;7.518;2023-04-03T01:36:29;100591.00;;;3.50
10058;BMP180;5068;51.286;7.518;2023-04-03T01:38:03;100586.00;;;3.50
10058;BMP180;5068;51.286;7.518;2023-04-03T01:39:36;100589.00;;;3.50
10058;BMP180;5068;51.286;7.518;2023-04-03T01:41:09;100590.00;;;3.50
10058;BMP180;5068;51.286;7.518;2023-04-03T01:42:42;100593.00;;;3.40
10058;BMP180;5068;51.286;7.518;2023-04-03T01:44:15;100598.00;;;3.40
10058;BMP180;5068;51.286;7.518;2023-04-03T01:45:49;100596.00;;;3.40
10058;BMP180;5068;51.286;7.518;2023-04-03T01:47:25;100598.00;;;3.40
10058;BMP180;5068;51.286;7.518;2023-04-03T01:48:59;100586.00;;;3.40
10058;BMP180;5068;51.286;7.518;2023-04-03T01:50:33;100576.00;;;3.40
10058;BMP180;5068;51.286;7.518;2023-04-03T01:52:07;100592.00;;;3.40
10058;BMP180;5068;51.286;7.518;2023-04-03T01:53:40;100583.00;;;3.30
10058;BMP180;5068;51.286;7.518;2023-04-03T01:55:13;100586.00;;;3.30
10058;BMP180;5068;51.286;7.518;2023-04-03T01:56:47;100589.00;;;3.30
10058;BMP180;5068;51.286;7.518;2023-04-03T01:58:20;100579.00;;;3.30
10058;BMP180;5068;51.286;7.518;2023-04-03T01:59:55;100577.00;;;3.30
10058;BMP180;5068;51.286;7.518;2023-04-03T02:01:28;100581.00;;;3.30
10058;BMP180;5068;51.286;7.518;2023-04-03T02:03:03;100579.00;;;3.30
10058;BMP180;5068;51.286;7.518;2023-04-03T02:04:36;100578.00;;;3.30
10058;BMP180;5068;51.286;7.518;2023-04-03T02:06:10;100571.00;;;3.30
10058;BMP180;5068;51.286;7.518;2023-04-03T02:07:44;100581.00;;;3.30
10058;BMP180;5068;51.286;7.518;2023-04-03T02:09:16;100596.00;;;3.40
10058;BMP180;5068;51.286;7.518;2023-04-03T02:10:51;100580.00;;;3.40
10058;BMP180;5068;51.286;7.518;2023-04-03T02:12:24;100588.00;;;3.40
10058;BMP180;5068;51.286;7.518;2023-04-03T02:13:57;100593.00;;;3.40
10058;BMP180;5068;51.286;7.518;2023-04-03T02:15:31;100590.00;;;3.40
10058;BMP180;5068;51.286;7.518;2023-04-03T02:17:03;100594.00;;;3.40
10058;BMP180;5068;51.286;7.518;2023-04-03T02:18:41;100586.00;;;3.40
10058;BMP180;5068;51.286;7.518;2023-04-03T02:20:15;100599.00;;;3.40
10058;BMP180;5068;51.286;7.518;2023-04-03T02:21:47;100596.00;;;3.40
10058;BMP180;5068;51.286;7.518;2023-04-03T02:23:20;100588.00;;;3.40
10058;BMP180;5068;51.286;7.518;2023-04-03T02:24:54;100593.00;;;3.40
10058;BMP180;5068;51.286;7.518;2023-04-03T02:26:28;100603.00;;;3.30
10058;BMP180;5068;51.286;7.518;2023-04-03T02:28:01;100600.00;;;3.30
10058;BMP180;5068;51.286;7.518;2023-04-03T02:29:35;100594.00;;;3.30
10058;BMP180;5068;51.286;7.518;2023-04-03T02:31:10;100601.00;;;3.30
10058;BMP180;5068;51.286;7.518;2023-04-03T02:32:45;100595.00;;;3.30
10058;BMP180;5068;51.286;7.518;2023-04-03T02:34:20;100608.00;;;3.30
10058;BMP180;5068;51.286;7.518;2023-04-03T02:35:54;100607.00;;;3.30
10058;BMP180;5068;51.286;7.518;2023-04-03T02:37:28;100605.00;;;3.20
10058;BMP180;5068;51.286;7.518;2023-04-03T02:39:02;100603.00;;;3.20
10058;BMP180;5068;51.286;7.518;2023-04-03T02:40:36;100600.00;;;3.20
10058;BMP180;5068;51.286;7.518;2023-04-03T02:42:10;100603.00;;;3.20
10058;BMP180;5068;51.286;7.518;2023-04-03T02:43:43;100600.00;;;3.20
10058;BMP180;5068;51.286;7.518;2023-04-03T02:45:16;100595.00;;;3.20
10058;BMP180;5068;51.286;7.518;2023-04-03T02:46:49;100595.00;;;3.20
10058;BMP180;5068;51.286;7.518;2023-04-03T02:48:22;100609.00;;;3.20
10058;BMP180;5068;51.286;7.518;2023-04-03T02:49:56;100609.00;;;3.20
10058;BMP180;5068;51.286;7.518;2023-04-03T02:51:30;100611.00;;;3.20
10058;BMP180;5068;51.286;7.518;2023-04-03T02:53:03;100616.00;;;3.20
10058;BMP180;5068;51.286;7.518;2023-04-03T02:54:36;100606.00;;;3.20
10058;BMP180;5068;51.286;7.518;2023-04-03T02:56:12;100613.00;;;3.10
10058;BMP180;5068;51.286;7.518;2023-04-03T02:57:45;100612.00;;;3.10
10058;BMP180;5068;51.286;7.518;2023-04-03T02:59:18;100615.00;;;3.10
10058;BMP180;5068;51.286;7.518;2023-04-03T03:00:53;100618.00;;;3.10
10058;BMP180;5068;51.286;7.518;2023-04-03T03:02:26;100611.00;;;3.10
10058;BMP180;5068;51.286;7.518;2023-04-03T03:04:00;100616.00;;;3.10
10058;BMP180;5068;51.286;7.518;2023-04-03T03:05:34;100615.00;;;3.00
10058;BMP180;5068;51.286;7.518;2023-04-03T03:07:08;100608.00;;;3.00
10058;BMP180;5068;51.286;7.518;2023-04-03T03:08:42;100607.00;;;3.00
10058;BMP180;5068;51.286;7.518;2023-04-03T03:10:16;100619.00;;;3.00
10058;BMP180;5068;51.286;7.518;2023-04-03T03:11:50;100619.00;;;3.00
10058;BMP180;5068;51.286;7.518;2023-04-03T03:13:24;100623.00;;;2.90
10058;BMP180;5068;51.286;7.518;2023-04-03T03:14:57;100617.00;;;2.90
10058;BMP180;5068;51.286;7.518;2023-04-03T03:16:30;100603.00;;;2.90
10058;BMP180;5068;51.286;7.518;2023-04-03T03:18:04;100612.00;;;2.90
10058;BMP180;5068;51.286;7.518;2023-04-03T03:19:36;100612.00;;;2.90
10058;BMP180;5068;51.286;7.518;2023-04-03T03:21:11;100614.00;;;2.80
10058;BMP180;5068;51.286;7.518;2023-04-03T03:22:44;100609.00;;;2.80
10058;BMP180;5068;51.286;7.518;2023-04-03T03:24:18;100611.00;;;2.80
10058;BMP180;5068;51.286;7.518;2023-04-03T03:25:56;100612.00;;;2.80
10058;BMP180;5068;51.286;7.518;2023-04-03T03:27:29;100608.00;;;2.70
10058;BMP180;5068;51.286;7.518;2023-04-03T03:29:02;100615.00;;;2.70
10058;BMP180;5068;51.286;7.518;2023-04-03T03:30:37;100600.00;;;2.70
10058;BMP180;5068;51.286;7.518;2023-04-03T03:32:10;100605.00;;;2.70
10058;BMP180;5068;51.286;7.518;2023-04-03T03:33:43;100605.00;;;2.80
10058;BMP180;5068;51.286;7.518;2023-04-03T03:35:16;100614.00;;;2.80
10058;BMP180;5068;51.286;7.518;2023-04-03T03:36:51;100610.00;;;2.80
10058;BMP180;5068;51.286;7.518;2023-04-03T03:38:24;100604.00;;;2.80
10058;BMP180;5068;51.286;7.518;2023-04-03T03:39:58;100605.00;;;2.80
10058;BMP180;5068;51.286;7.518;2023-04-03T03:41:31;100609.00;;;2.80
10058;BMP180;5068;51.286;7.518;2023-04-03T03:43:05;100609.00;;;2.70
10058;BMP180;5068;51.286;7.518;2023-04-03T03:44:37;100610.00;;;2.70
10058;BMP180;5068;51.286;7.518;2023-04-03T03:46:10;100618.00;;;2.70
10058;BMP180;5068;51.286;7.518;2023-04-03T03:47:44;100606.00;;;2.70
10058;BMP180;5068;51.286;7.518;2023-04-03T03:49:17;100603.00;;;2.70
10058;BMP180;5068;51.286;7.518;2023-04-03T03:50:50;100611.00;;;2.70
10058;BMP180;5068;51.286;7.518;2023-04-03T03:52:29;100609.00;;;2.70
10058;BMP180;5068;51.286;7.518;2023-04-03T03:54:02;100612.00;;;2.70
10058;BMP180;5068;51.286;7.518;2023-04-03T03:55:36;100614.00;;;2.60
10058;BMP180;5068;51.286;7.518;2023-04-03T03:57:10;100612.00;;;2.60
10058;BMP180;5068;51.286;7.518;2023-04-03T03:58:43;100624.00;;;2.60
10058;BMP180;5068;51.286;7.518;2023-04-03T04:00:18;100625.00;;;2.60
10058;BMP180;5068;51.286;7.518;2023-04-03T04:01:57;100627.00;;;2.60
10058;BMP180;5068;51.286;7.518;2023-04-03T04:03:30;100626.00;;;2.70
10058;BMP180;5068;51.286;7.518;2023-04-03T04:05:04;100614.00;;;2.70
10058;BMP180;5068;51.286;7.518;2023-04-03T04:06:38;100622.00;;;2.70
10058;BMP180;5068;51.286;7.518;2023-04-03T04:08:15;100629.00;;;2.70
10058;BMP180;5068;51.286;7.518;2023-04-03T04:09:49;100624.00;;;2.70
10058;BMP180;5068;51.286;7.518;2023-04-03T04:11:23;100626.00;;;2.70
10058;BMP180;5068;51.286;7.518;2023-04-03T04:12:58;100622.00;;;2.70
10058;BMP180;5068;51.286;7.518;2023-04-03T04:14:33;100623.00;;;2.70
10058;BMP180;5068;51.286;7.518;2023-04-03T04:16:07;100634.00;;;2.70
10058;BMP180;5068;51.286;7.518;2023-04-03T04:17:43;100620.00;;;2.70
10058;BMP180;5068;51.286;7.518;2023-04-03T04:19:16;100627.00;;;2.60
10058;BMP180;5068;51.286;7.518;2023-04-03T04:20:50;100632.00;;;2.60
10058;BMP180;5068;51.286;7.518;2023-04-03T04:22:24;100613.00;;;2.60
10058;BMP180;5068;51.286;7.518;2023-04-03T04:23:59;100621.00;;;2.60
10058;BMP180;5068;51.286;7.518;2023-04-03T04:25:32;100618.00;;;2.60
10058;BMP180;5068;51.286;7.518;2023-04-03T04:27:06;100621.00;;;2.60
10058;BMP180;5068;51.286;7.518;2023-04-03T04:28:39;100623.00;;;2.50
10058;BMP180;5068;51.286;7.518;2023-04-03T04:30:14;100622.00;;;2.50
10058;BMP180;5068;51.286;7.518;2023-04-03T04:31:49;100631.00;;;2.50
10058;BMP180;5068;51.286;7.518;2023-04-03T04:33:22;100626.00;;;2.50
10058;BMP180;5068;51.286;7.518;2023-04-03T04:34:55;100621.00;;;2.50
10058;BMP180;5068;51.286;7.518;2023-04-03T04:36:29;100615.00;;;2.50
10058;BMP180;5068;51.286;7.518;2023-04-03T04:38:04;100629.00;;;2.50
10058;BMP180;5068;51.286;7.518;2023-04-03T04:39:38;100623.00;;;2.50
10058;BMP180;5068;51.286;7.518;2023-04-03T04:41:12;100628.00;;;2.60
10058;BMP180;5068;51.286;7.518;2023-04-03T04:42:45;100632.00;;;2.50
10058;BMP180;5068;51.286;7.518;2023-04-03T04:44:18;100627.00;;;2.60
10058;BMP180;5068;51.286;7.518;2023-04-03T04:46:01;100631.00;;;2.60
10058;BMP180;5068;51.286;7.518;2023-04-03T04:47:37;100631.00;;;2.50
10058;BMP180;5068;51.286;7.518;2023-04-03T04:49:11;100626.00;;;2.50
10058;BMP180;5068;51.286;7.518;2023-04-03T04:50:44;100634.00;;;2.50
10058;BMP180;5068;51.286;7.518;2023-04-03T04:52:17;100633.00;;;2.50
10058;BMP180;5068;51.286;7.518;2023-04-03T04:53:50;100631.00;;;2.50
10058;BMP180;5068;51.286;7.518;2023-04-03T04:55:28;100634.00;;;2.50
10058;BMP180;5068;51.286;7.518;2023-04-03T04:57:01;100639.00;;;2.40
10058;BMP180;5068;51.286;7.518;2023-04-03T04:58:35;100643.00;;;2.40
10058;BMP180;5068;51.286;7.518;2023-04-03T05:00:10;100651.00;;;2.40
10058;BMP180;5068;51.286;7.518;2023-04-03T05:01:44;100643.00;;;2.40
10058;BMP180;5068;51.286;7.518;2023-04-03T05:03:20;100651.00;;;2.40
10058;BMP180;5068;51.286;7.518;2023-04-03T05:04:54;100650.00;;;2.40
10058;BMP180;5068;51.286;7.518;2023-04-03T05:06:31;100646.00;;;2.40
10058;BMP180;5068;51.286;7.518;2023-04-03T05:08:09;100652.00;;;2.30
10058;BMP180;5068;51.286;7.518;2023-04-03T05:09:44;100655.00;;;2.30
10058;BMP180;5068;51.286;7.518;2023-04-03T05:11:20;100655.00;;;2.30
10058;BMP180;5068;51.286;7.518;2023-04-03T05:12:56;100658.00;;;2.30
10058;BMP180;5068;51.286;7.518;2023-04-03T05:14:29;100659.00;;;2.30
10058;BMP180;5068;51.286;7.518;2023-04-03T05:16:07;100657.00;;;2.30
10058;BMP180;5068;51.286;7.518;2023-04-03T05:17:40;100664.00;;;2.30
10058;BMP180;5068;51.286;7.518;2023-04-03T05:19:17;100659.00;;;2.30
10058;BMP180;5068;51.286;7.518;2023-04-03T05:20:50;100661.00;;;2.40
10058;BMP180;5068;51.286;7.518;2023-04-03T05:22:24;100658.00;;;2.40
10058;BMP180;5068;51.286;7.518;2023-04-03T05:24:01;100666.00;;;2.40
10058;BMP180;5068;51.286;7.518;2023-04-03T05:25:38;100664.00;;;2.40
10058;BMP180;5068;51.286;7.518;2023-04-03T05:27:13;100670.00;;;2.40
10058;BMP180;5068;51.286;7.518;2023-04-03T05:28:50;100677.00;;;2.40
10058;BMP180;5068;51.286;7.518;2023-04-03T05:30:24;100674.00;;;2.40
10058;BMP180;5068;51.286;7.518;2023-04-03T05:31:57;100666.00;;;2.40
10058;BMP180;5068;51.286;7.518;2023-04-03T05:33:31;100678.00;;;2.40
10058;BMP180;5068;51.286;7.518;2023-04-03T05:35:06;100673.00;;;2.40
10058;BMP180;5068;51.286;7.518;2023-04-03T05:36:40;100670.00;;;2.40
10058;BMP180;5068;51.286;7.518;2023-04-03T05:38:15;100673.00;;;2.40
10058;BMP180;5068;51.286;7.518;2023-04-03T05:39:48;100685.00;;;2.40
10058;BMP180;5068;51.286;7.518;2023-04-03T05:41:22;100682.00;;;2.40
10058;BMP180;5068;51.286;7.518;2023-04-03T05:42:57;100694.00;;;2.40
10058;BMP180;5068;51.286;7.518;2023-04-03T05:44:33;100691.00;;;2.40
10058;BMP180;5068;51.286;7.518;2023-04-03T05:46:10;100689.00;;;2.30
10058;BMP180;5068;51.286;7.518;2023-04-03T05:47:46;100689.00;;;2.30
10058;BMP180;5068;51.286;7.518;2023-04-03T05:49:20;100700.00;;;2.30
10058;BMP180;5068;51.286;7.518;2023-04-03T05:50:53;100699.00;;;2.30
10058;BMP180;5068;51.286;7.518;2023-04-03T05:52:33;100697.00;;;2.30
10058;BMP180;5068;51.286;7.518;2023-04-03T05:54:13;100689.00;;;2.30
10058;BMP180;5068;51.286;7.518;2023-04-03T05:55:49;100695.00;;;2.30
10058;BMP180;5068;51.286;7.518;2023-04-03T05:57:23;100703.00;;;2.30
10058;BMP180;5068;51.286;7.518;2023-04-03T05:58:58;100695.00;;;2.30
10058;BMP180;5068;51.286;7.518;2023-04-03T06:00:31;100692.00;;;2.30
10058;BMP180;5068;51.286;7.518;2023-04-03T06:02:06;100701.00;;;2.20
10058;BMP180;5068;51.286;7.518;2023-04-03T06:03:40;100703.00;;;2.20
10058;BMP180;5068;51.286;7.518;2023-04-03T06:05:14;100708.00;;;2.20
10058;BMP180;5068;51.286;7.518;2023-04-03T06:06:50;100701.00;;;2.30
10058;BMP180;5068;51.286;7.518;2023-04-03T06:08:24;100699.00;;;2.30
10058;BMP180;5068;51.286;7.518;2023-04-03T06:09:57;100697.00;;;2.30
10058;BMP180;5068;51.286;7.518;2023-04-03T06:11:31;100697.00;;;2.30
10058;BMP180;5068;51.286;7.518;2023-04-03T06:13:04;100702.00;;;2.30
10058;BMP180;5068;51.286;7.518;2023-04-03T06:14:39;100710.00;;;2.30
10058;BMP180;5068;51.286;7.518;2023-04-03T06:16:13;100695.00;;;2.40
10058;BMP180;5068;51.286;7.518;2023-04-03T06:17:47;100707.00;;;2.40
10058;BMP180;5068;51.286;7.518;2023-04-03T06:19:21;100705.00;;;2.40
10058;BMP180;5068;51.286;7.518;2023-04-03T06:20:59;100698.00;;;2.40
10058;BMP180;5068;51.286;7.518;2023-04-03T06:22:32;100717.00;;;2.40
10058;BMP180;5068;51.286;7.518;2023-04-03T06:24:07;100710.00;;;2.40
10058;BMP180;5068;51.286;7.518;2023-04-03T06:25:40;100720.00;;;2.50
10058;BMP180;5068;51.286;7.518;2023-04-03T06:27:13;100713.00;;;2.50
10058;BMP180;5068;51.286;7.518;2023-04-03T06:28:47;100716.00;;;2.50
10058;BMP180;5068;51.286;7.518;2023-04-03T06:30:22;100721.00;;;2.60
10058;BMP180;5068;51.286;7.518;2023-04-03T06:31:55;100723.00;;;2.60
10058;BMP180;5068;51.286;7.518;2023-04-03T06:33:29;100731.00;;;2.60
10058;BMP180;5068;51.286;7.518;2023-04-03T06:35:02;100728.00;;;2.60
10058;BMP180;5068;51.286;7.518;2023-04-03T06:36:35;100725.00;;;2.60
10058;BMP180;5068;51.286;7.518;2023-04-03T06:38:09;100718.00;;;2.70
10058;BMP180;5068;51.286;7.518;2023-04-03T06:39:43;100724.00;;;2.70
10058;BMP180;5068;51.286;7.518;2023-04-03T06:41:17;100720.00;;;2.70
10058;BMP180;5068;51.286;7.518;2023-04-03T06:42:50;100727.00;;;2.70
10058;BMP180;5068;51.286;7.518;2023-04-03T06:44:24;100711.00;;;2.70
10058;BMP180;5068;51.286;7.518;2023-04-03T06:45:59;100730.00;;;2.60
10058;BMP180;5068;51.286;7.518;2023-04-03T06:47:32;100713.00;;;2.60
10058;BMP180;5068;51.286;7.518;2023-04-03T06:49:05;100712.00;;;2.60
10058;BMP180;5068;51.286;7.518;2023-04-03T06:50:40;100720.00;;;2.60
10058;BMP180;5068;51.286;7.518;2023-04-03T06:52:14;100732.00;;;2.60
10058;BMP180;5068;51.286;7.518;2023-04-03T06:53:50;100729.00;;;2.50
10058;BMP180;5068;51.286;7.518;2023-04-03T06:55:24;100729.00;;;2.50
10058;BMP180;5068;51.286;7.518;2023-04-03T06:56:57;100729.00;;;2.60
10058;BMP180;5068;51.286;7.518;2023-04-03T06:58:30;100728.00;;;2.60
10058;BMP180;5068;51.286;7.518;2023-04-03T07:00:05;100726.00;;;2.60
10058;BMP180;5068;51.286;7.518;2023-04-03T07:01:41;100727.00;;;2.60
10058;BMP180;5068;51.286;7.518;2023-04-03T07:03:14;100723.00;;;2.60
10058;BMP180;5068;51.286;7.518;2023-04-03T07:04:48;100721.00;;;2.60
10058;BMP180;5068;51.286;7.518;2023-04-03T07:06:21;100723.00;;;2.70
10058;BMP180;5068;51.286;7.518;2023-04-03T07:07:55;100722.00;;;2.70
10058;BMP180;5068;51.286;7.518;2023-04-03T07:09:28;100721.00;;;2.80
10058;BMP180;5068;51.286;7.518;2023-04-03T07:11:01;100723.00;;;2.80
10058;BMP180;5068;51.286;7.518;2023-04-03T07:12:34;100722.00;;;2.90
10058;BMP180;5068;51.286;7.518;2023-04-03T07:14:07;100726.00;;;3.00
10058;BMP180;5068;51.286;7.518;2023-04-03T07:15:41;100730.00;;;3.10
10058;BMP180;5068;51.286;7.518;2023-04-03T07:17:15;100720.00;;;3.20
10058;BMP180;5068;51.286;7.518;2023-04-03T07:18:48;100720.00;;;3.20
10058;BMP180;5068;51.286;7.518;2023-04-03T07:20:22;100718.00;;;3.30
10058;BMP180;5068;51.286;7.518;2023-04-03T07:21:55;100719.00;;;3.40
10058;BMP180;5068;51.286;7.518;2023-04-03T07:23:28;100735.00;;;3.50
10058;BMP180;5068;51.286;7.518;2023-04-03T07:25:01;100722.00;;;3.60
10058;BMP180;5068;51.286;7.518;2023-04-03T07:26:35;100717.00;;;3.60
10058;BMP180;5068;51.286;7.518;2023-04-03T07:28:08;100718.00;;;3.70
10058;BMP180;5068;51.286;7.518;2023-04-03T07:29:41;100731.00;;;3.80
10058;BMP180;5068;51.286;7.518;2023-04-03T07:31:16;100726.00;;;3.90
10058;BMP180;5068;51.286;7.518;2023-04-03T07:32:52;100718.00;;;3.90
10058;BMP180;5068;51.286;7.518;2023-04-03T07:34:25;100730.00;;;4.00
10058;BMP180;5068;51.286;7.518;2023-04-03T07:35:58;100731.00;;;4.10
10058;BMP180;5068;51.286;7.518;2023-04-03T07:37:32;100734.00;;;4.20
10058;BMP180;5068;51.286;7.518;2023-04-03T07:39:05;100741.00;;;4.30
10058;BMP180;5068;51.286;7.518;2023-04-03T07:40:40;100736.00;;;4.30
10058;BMP180;5068;51.286;7.518;2023-04-03T07:42:13;100739.00;;;4.40
10058;BMP180;5068;51.286;7.518;2023-04-03T07:43:46;100731.00;;;4.50
10058;BMP180;5068;51.286;7.518;2023-04-03T07:45:21;100736.00;;;4.60
10058;BMP180;5068;51.286;7.518;2023-04-03T07:46:55;100727.00;;;4.70
10058;BMP180;5068;51.286;7.518;2023-04-03T07:48:30;100737.00;;;4.80
10058;BMP180;5068;51.286;7.518;2023-04-03T07:50:04;100739.00;;;4.90
10058;BMP180;5068;51.286;7.518;2023-04-03T07:51:37;100737.00;;;5.00
10058;BMP180;5068;51.286;7.518;2023-04-03T07:53:11;100730.00;;;5.00
10058;BMP180;5068;51.286;7.518;2023-04-03T07:54:44;100734.00;;;5.10
10058;BMP180;5068;51.286;7.518;2023-04-03T07:56:18;100730.00;;;5.20
10058;BMP180;5068;51.286;7.518;2023-04-03T07:57:52;100730.00;;;5.40
10058;BMP180;5068;51.286;7.518;2023-04-03T07:59:25;100735.00;;;5.50
10058;BMP180;5068;51.286;7.518;2023-04-03T08:00:58;100731.00;;;5.50
10058;BMP180;5068;51.286;7.518;2023-04-03T08:02:32;100740.00;;;5.60
10058;BMP180;5068;51.286;7.518;2023-04-03T08:04:06;100737.00;;;5.70
10058;BMP180;5068;51.286;7.518;2023-04-03T08:05:42;100751.00;;;5.90
10058;BMP180;5068;51.286;7.518;2023-04-03T08:07:15;100732.00;;;6.00
10058;BMP180;5068;51.286;7.518;2023-04-03T08:08:48;100739.00;;;6.10
10058;BMP180;5068;51.286;7.518;2023-04-03T08:10:21;100733.00;;;6.10
10058;BMP180;5068;51.286;7.518;2023-04-03T08:11:55;100735.00;;;6.30
10058;BMP180;5068;51.286;7.518;2023-04-03T08:13:29;100737.00;;;6.40
10058;BMP180;5068;51.286;7.518;2023-04-03T08:15:04;100742.00;;;6.50
10058;BMP180;5068;51.286;7.518;2023-04-03T08:16:38;100740.00;;;6.60
10058;BMP180;5068;51.286;7.518;2023-04-03T08:18:11;100740.00;;;6.60
10058;BMP180;5068;51.286;7.518;2023-04-03T08:19:45;100741.00;;;6.70
10058;BMP180;5068;51.286;7.518;2023-04-03T08:21:19;100739.00;;;6.80
10058;BMP180;5068;51.286;7.518;2023-04-03T08:22:52;100735.00;;;6.90
10058;BMP180;5068;51.286;7.518;2023-04-03T08:24:25;100740.00;;;7.00
10058;BMP180;5068;51.286;7.518;2023-04-03T08:25:58;100744.00;;;7.10
10058;BMP180;5068;51.286;7.518;2023-04-03T08:27:32;100736.00;;;7.20
10058;BMP180;5068;51.286;7.518;2023-04-03T08:29:05;100740.00;;;7.30
10058;BMP180;5068;51.286;7.518;2023-04-03T08:30:39;100739.00;;;7.40
10058;BMP180;5068;51.286;7.518;2023-04-03T08:32:14;100746.00;;;7.50
10058;BMP180;5068;51.286;7.518;2023-04-03T08:33:47;100746.00;;;7.60
10058;BMP180;5068;51.286;7.518;2023-04-03T08:35:22;100749.00;;;7.60
10058;BMP180;5068;51.286;7.518;2023-04-03T08:36:55;100750.00;;;7.70
10058;BMP180;5068;51.286;7.518;2023-04-03T08:38:28;100741.00;;;7.80
10058;BMP180;5068;51.286;7.518;2023-04-03T08:40:01;100746.00;;;7.90
10058;BMP180;5068;51.286;7.518;2023-04-03T08:41:38;100741.00;;;7.90
10058;BMP180;5068;51.286;7.518;2023-04-03T08:43:36;100765.00;;;8.00
10058;BMP180;5068;51.286;7.518;2023-04-03T08:45:15;100753.00;;;8.10
10058;BMP180;5068;51.286;7.518;2023-04-03T08:47:07;100741.00;;;8.20
10058;BMP180;5068;51.286;7.518;2023-04-03T08:48:43;100751.00;;;8.30
10058;BMP180;5068;51.286;7.518;2023-04-03T08:50:20;100754.00;;;8.30
10058;BMP180;5068;51.286;7.518;2023-04-03T08:51:57;100751.00;;;8.30
10058;BMP180;5068;51.286;7.518;2023-04-03T08:53:35;100748.00;;;8.40
10058;BMP180;5068;51.286;7.518;2023-04-03T08:55:22;100748.00;;;8.40
10058;BMP180;5068;51.286;7.518;2023-04-03T08:57:01;100754.00;;;8.50
10058;BMP180;5068;51.286;7.518;2023-04-03T08:58:45;100753.00;;;8.50
10058;BMP180;5068;51.286;7.518;2023-04-03T09:00:23;100766.00;;;8.60
10058;BMP180;5068;51.286;7.518;2023-04-03T09:02:00;100758.00;;;8.60
10058;BMP180;5068;51.286;7.518;2023-04-03T09:03:39;100766.00;;;8.70
10058;BMP180;5068;51.286;7.518;2023-04-03T09:05:16;100772.00;;;8.70
10058;BMP180;5068;51.286;7.518;2023-04-03T09:06:57;100766.00;;;8.80
10058;BMP180;5068;51.286;7.518;2023-04-03T09:08:37;100764.00;;;8.80
10058;BMP180;5068;51.286;7.518;2023-04-03T09:10:14;100764.00;;;8.90
10058;BMP180;5068;51.286;7.518;2023-04-03T09:12:01;100752.00;;;8.90
10058;BMP180;5068;51.286;7.518;2023-04-03T09:13:49;100770.00;;;9.00